KESF/ESF METAR and TAF weather

Enter ICAO airport designator
Station Type Date Time Source
KESF METAR 2022/01/29 09:53 UTC NOAA

KESF 290953Z AUTO 00000KT 10SM CLR 01/M06 A3040 RMK AO2 SLP293 T00061056


Station Type Date Time Source
KESF Decoded METAR 2022/01/29 09:53 UTC NOAA

ALEXANDRIA ESLER RGNL AIRPORT , LA, United States (KESF) 31-24N 092-18W 28M
Jan 29, 2022 - 04:53 AM EST / 2022.01.29 0953 UTC
Wind: Calm:0
Visibility: 10 mile(s):0
Sky conditions: clear
Temperature: 33.1 F (0.6 C)
Dew Point: 21.9 F (-5.6 C)
Relative Humidity: 63%
Pressure (altimeter): 30.4 in. Hg (1029 hPa)
ob: KESF 290953Z AUTO 00000KT 10SM CLR 01/M06 A3040 RMK AO2 SLP293 T00061056
cycle: 10

Station Type Date Time Source
KESF TAF UTC NOAA

Error!

Example: see airport list